createdAt,value
2022-08-23T00:01:39.227Z,5.03
2022-08-23T00:04:08.577Z,5.35
2022-08-23T00:06:38.957Z,5.10
2022-08-23T00:09:06.605Z,5.90
2022-08-23T00:11:36.984Z,5.22
2022-08-23T00:14:10.805Z,6.05
2022-08-23T00:16:38.255Z,5.80
2022-08-23T00:19:07.474Z,6.05
2022-08-23T00:21:38.440Z,6.28
2022-08-23T00:24:08.006Z,6.30
2022-08-23T00:26:58.008Z,5.72
2022-08-23T00:29:26.616Z,5.78
2022-08-23T00:31:53.860Z,5.75
2022-08-23T00:34:21.969Z,6.03
2022-08-23T00:36:49.932Z,6.15
2022-08-23T00:39:17.861Z,5.63
2022-08-23T00:41:46.336Z,5.43
2022-08-23T00:44:46.644Z,5.70
2022-08-23T00:47:34.657Z,5.85
2022-08-23T00:50:23.702Z,6.57
2022-08-23T00:53:20.349Z,6.03
2022-08-23T00:55:50.445Z,6.30
2022-08-23T00:58:20.235Z,6.35
2022-08-23T01:00:49.983Z,5.95
2022-08-23T01:03:17.916Z,6.47
2022-08-23T01:05:52.728Z,6.57
2022-08-23T01:08:20.860Z,6.38
2022-08-23T01:10:53.433Z,6.82
2022-08-23T01:13:26.844Z,6.35
2022-08-23T01:15:58.363Z,6.47
2022-08-23T01:18:28.605Z,5.90
2022-08-23T01:21:10.334Z,6.43
2022-08-23T01:23:50.339Z,5.70
2022-08-23T01:26:21.873Z,7.40
2022-08-23T01:28:49.509Z,6.53
2022-08-23T01:31:18.465Z,6.63
2022-08-23T01:33:49.099Z,6.28
2022-08-23T01:36:17.045Z,6.05
2022-08-23T01:38:44.247Z,6.88
2022-08-23T01:41:10.956Z,6.80
2022-08-23T01:43:37.873Z,6.93
2022-08-23T01:46:10.880Z,6.78
2022-08-23T01:48:38.475Z,6.47
2022-08-23T01:51:05.943Z,6.78
2022-08-23T01:53:33.122Z,6.97
2022-08-23T01:56:01.688Z,6.97
2022-08-23T01:58:30.166Z,7.15
2022-08-23T02:00:57.522Z,7.57
2022-08-23T02:03:24.736Z,7.15
2022-08-23T02:08:43.819Z,7.30
2022-08-23T02:11:12.627Z,7.20
2022-08-23T02:13:39.895Z,7.35
2022-08-23T02:16:06.791Z,6.65
2022-08-23T02:18:34.087Z,6.90
2022-08-23T02:21:01.167Z,7.15
2022-08-23T02:23:28.418Z,7.50
2022-08-23T02:25:55.958Z,7.45
2022-08-23T02:28:24.042Z,7.32
2022-08-23T02:30:51.843Z,7.30
2022-08-23T02:33:18.930Z,6.78
2022-08-23T02:35:47.050Z,7.03
2022-08-23T02:38:13.895Z,6.72
2022-08-23T02:40:41.358Z,6.50
2022-08-23T02:43:08.982Z,6.55
2022-08-23T02:45:36.610Z,6.95
2022-08-23T02:48:03.794Z,6.93
2022-08-23T02:50:31.031Z,7.38
2022-08-23T02:52:58.247Z,6.85
2022-08-23T02:55:25.505Z,7.22
2022-08-23T02:57:52.256Z,7.68
2022-08-23T03:00:19.974Z,7.63
2022-08-23T03:02:47.247Z,7.10
2022-08-23T03:05:15.138Z,7.78
2022-08-23T03:07:42.512Z,7.25
2022-08-23T03:10:10.447Z,7.10
2022-08-23T03:12:37.555Z,7.05
2022-08-23T03:15:05.768Z,7.18
2022-08-23T03:17:32.711Z,6.95
2022-08-23T03:19:59.442Z,7.20
2022-08-23T03:22:26.431Z,7.32
2022-08-23T03:24:53.174Z,7.55
2022-08-23T03:27:19.927Z,7.85
2022-08-23T03:29:46.658Z,8.45
2022-08-23T03:32:15.541Z,8.57
2022-08-23T03:34:42.814Z,8.45
2022-08-23T03:37:09.711Z,8.20
2022-08-23T03:39:36.610Z,8.88
2022-08-23T03:42:03.974Z,8.55
2022-08-23T03:44:30.871Z,8.80
2022-08-23T03:46:57.561Z,8.77
2022-08-23T03:49:24.490Z,9.68
2022-08-23T03:51:51.470Z,9.82
2022-08-23T03:54:18.213Z,9.65
2022-08-23T03:56:54.627Z,8.70
2022-08-23T03:59:21.883Z,8.48
2022-08-23T04:01:49.392Z,8.77
2022-08-23T04:04:17.314Z,8.23
2022-08-23T04:06:45.227Z,8.02
2022-08-23T04:09:13.621Z,8.68
2022-08-23T04:11:40.510Z,8.13
2022-08-23T04:14:07.329Z,8.40
2022-08-23T04:16:37.625Z,7.55
2022-08-23T04:19:05.492Z,7.65
2022-08-23T04:21:37.798Z,8.82
2022-08-23T04:24:05.006Z,8.30
2022-08-23T04:26:33.574Z,8.52
2022-08-23T04:29:00.818Z,7.32
2022-08-23T04:31:28.311Z,8.10
2022-08-23T04:34:01.558Z,7.57
2022-08-23T04:36:34.474Z,7.70
2022-08-23T04:39:01.637Z,8.10
2022-08-23T04:41:48.272Z,7.85
2022-08-23T04:44:15.470Z,7.82
2022-08-23T04:46:43.777Z,8.30
2022-08-23T04:49:11.825Z,8.32
2022-08-23T04:51:38.992Z,8.38
2022-08-23T04:54:06.257Z,8.73
2022-08-23T04:56:33.185Z,7.75
2022-08-23T04:59:00.017Z,7.90
2022-08-23T05:01:26.940Z,7.85
2022-08-23T05:03:55.320Z,8.13
2022-08-23T05:06:22.676Z,7.78
2022-08-23T05:08:49.682Z,8.02
2022-08-23T05:11:18.920Z,7.63
2022-08-23T05:13:45.637Z,7.25
2022-08-23T05:16:12.489Z,7.18
2022-08-23T05:18:39.514Z,6.45
2022-08-23T05:21:06.549Z,6.38
2022-08-23T05:23:40.715Z,5.60
2022-08-23T05:26:08.162Z,5.03
2022-08-23T05:28:36.277Z,4.38
2022-08-23T05:31:10.384Z,5.65
2022-08-23T05:33:39.140Z,5.45
2022-08-23T05:36:09.613Z,4.80
2022-08-23T05:38:37.153Z,4.20
2022-08-23T05:41:05.237Z,4.97
2022-08-23T05:43:33.338Z,4.85
2022-08-23T05:46:04.974Z,5.18
2022-08-23T05:48:33.679Z,5.20
2022-08-23T05:51:09.436Z,5.20
2022-08-23T05:53:37.394Z,5.25
2022-08-23T05:56:24.426Z,5.45
2022-08-23T05:58:55.522Z,5.53
2022-08-23T06:01:26.482Z,5.55
2022-08-23T06:03:53.769Z,6.88
2022-08-23T06:06:21.292Z,6.32
2022-08-23T06:08:49.308Z,7.07
2022-08-23T06:11:20.198Z,8.63
2022-08-23T06:13:48.711Z,9.27
2022-08-23T06:16:16.883Z,9.77
2022-08-23T06:18:44.675Z,10.48
2022-08-23T06:21:12.864Z,9.07
2022-08-23T06:23:40.132Z,10.43
2022-08-23T06:26:16.889Z,10.00
2022-08-23T06:28:50.479Z,9.32
2022-08-23T06:31:38.460Z,9.15
2022-08-23T06:34:05.668Z,9.60
2022-08-23T06:36:33.260Z,10.25
2022-08-23T06:39:00.492Z,10.10
2022-08-23T06:41:28.659Z,10.90
2022-08-23T06:43:55.711Z,10.93
2022-08-23T06:46:24.408Z,10.20
2022-08-23T06:48:55.707Z,10.18
2022-08-23T06:51:23.235Z,9.80
2022-08-23T06:53:50.703Z,8.95
2022-08-23T06:56:18.068Z,9.43
2022-08-23T06:58:45.159Z,9.40
2022-08-23T07:01:48.978Z,8.73
2022-08-23T07:04:11.257Z,8.90
2022-08-23T07:06:38.867Z,8.27
2022-08-23T07:09:06.396Z,8.73
2022-08-23T07:11:33.607Z,8.25
2022-08-23T07:14:01.023Z,7.90
2022-08-23T07:16:34.140Z,7.97
2022-08-23T07:19:01.577Z,8.38
2022-08-23T07:21:28.851Z,8.30
2022-08-23T07:23:55.651Z,7.53
2022-08-23T07:26:23.799Z,7.82
2022-08-23T07:28:51.291Z,7.70
2022-08-23T07:31:18.374Z,7.20
2022-08-23T07:33:46.054Z,7.47
2022-08-23T07:36:16.319Z,7.80
2022-08-23T07:38:44.174Z,9.38
2022-08-23T07:41:11.666Z,8.38
2022-08-23T07:43:39.270Z,7.43
2022-08-23T07:46:08.464Z,7.07
2022-08-23T07:48:53.446Z,6.68
2022-08-23T07:51:21.988Z,6.80
2022-08-23T07:53:49.182Z,6.40
2022-08-23T07:56:18.066Z,6.30
2022-08-23T07:58:45.387Z,5.65
2022-08-23T08:01:15.709Z,5.88
2022-08-23T08:03:43.852Z,7.07
2022-08-23T08:06:12.754Z,6.65
2022-08-23T08:08:41.145Z,5.57
2022-08-23T08:11:09.121Z,6.53
2022-08-23T08:13:38.170Z,5.60
2022-08-23T08:16:05.571Z,5.45
2022-08-23T08:18:32.732Z,5.68
2022-08-23T08:20:59.862Z,4.70
2022-08-23T08:23:29.207Z,5.70
2022-08-23T08:26:06.231Z,4.78
2022-08-23T08:28:33.889Z,4.78
2022-08-23T08:31:01.113Z,3.20
2022-08-23T08:33:30.785Z,3.38
2022-08-23T08:36:00.725Z,3.38
2022-08-23T08:38:51.137Z,3.60
2022-08-23T08:41:28.097Z,3.42
2022-08-23T08:44:16.424Z,2.70
2022-08-23T08:46:50.627Z,2.40
2022-08-23T08:49:44.077Z,2.80
2022-08-23T08:52:32.242Z,2.45
2022-08-23T08:55:05.670Z,2.70
2022-08-23T08:57:39.139Z,2.80
2022-08-23T09:00:13.586Z,2.80
2022-08-23T09:02:41.876Z,2.60
2022-08-23T09:05:15.265Z,2.78
2022-08-23T09:08:07.184Z,2.20
2022-08-23T09:10:34.833Z,2.08
2022-08-23T09:13:03.608Z,2.47
2022-08-23T09:15:40.293Z,2.80
2022-08-23T09:18:11.932Z,2.20
2022-08-23T09:20:40.344Z,2.33
2022-08-23T09:23:17.130Z,2.17
2022-08-23T09:25:59.868Z,2.38
2022-08-23T09:28:31.052Z,2.33
2022-08-23T09:31:00.272Z,1.95
2022-08-23T09:33:38.848Z,2.38
2022-08-23T09:36:06.047Z,1.90
2022-08-23T09:38:33.448Z,2.00
2022-08-23T09:41:01.049Z,2.20
2022-08-23T09:43:29.107Z,2.33
2022-08-23T09:45:58.608Z,2.40
2022-08-23T09:48:41.692Z,2.15
2022-08-23T09:51:18.764Z,1.63
2022-08-23T09:53:50.122Z,1.98
2022-08-23T09:56:19.672Z,2.10
2022-08-23T09:58:50.871Z,2.20
2022-08-23T10:01:21.319Z,2.25
2022-08-23T10:04:08.663Z,2.00
2022-08-23T10:06:35.924Z,1.83
2022-08-23T10:09:05.463Z,2.15
2022-08-23T10:11:45.170Z,2.13
2022-08-23T10:14:17.680Z,1.80
2022-08-23T10:17:08.142Z,2.00
2022-08-23T10:19:40.099Z,1.77
2022-08-23T10:22:37.555Z,1.88
2022-08-23T10:25:12.336Z,1.92
2022-08-23T10:28:00.041Z,2.05
2022-08-23T10:30:33.345Z,2.00
2022-08-23T10:33:14.312Z,1.90
2022-08-23T10:36:05.643Z,1.80
2022-08-23T10:38:43.123Z,1.70
2022-08-23T10:41:11.610Z,1.85
2022-08-23T10:43:58.670Z,1.65
2022-08-23T10:46:27.068Z,1.70
2022-08-23T10:48:56.218Z,1.83
2022-08-23T10:51:40.495Z,1.80
2022-08-23T10:54:12.635Z,1.50
2022-08-23T10:56:48.492Z,1.70
2022-08-23T10:59:20.982Z,1.75
2022-08-23T11:01:51.596Z,1.98
2022-08-23T11:04:39.114Z,1.95
2022-08-23T11:07:26.126Z,1.67
2022-08-23T11:09:55.834Z,1.40
2022-08-23T11:12:24.582Z,1.45
2022-08-23T11:15:11.650Z,1.45
2022-08-23T11:17:42.910Z,1.60
2022-08-23T11:20:12.046Z,1.40
2022-08-23T11:22:59.105Z,1.95
2022-08-23T11:25:39.942Z,1.30
2022-08-23T11:28:22.806Z,1.70
2022-08-23T11:30:51.886Z,1.35
2022-08-23T11:33:19.138Z,1.80
2022-08-23T11:35:46.270Z,1.50
2022-08-23T11:38:13.836Z,1.35
2022-08-23T11:40:41.974Z,1.13
2022-08-23T11:43:13.562Z,1.60
2022-08-23T11:45:46.531Z,1.40
2022-08-23T11:48:16.430Z,1.60
2022-08-23T11:50:58.051Z,1.50
2022-08-23T11:53:46.550Z,1.63
2022-08-23T11:56:29.349Z,1.30
2022-08-23T11:59:12.726Z,1.48
2022-08-23T12:01:41.373Z,2.95
2022-08-23T12:04:11.924Z,1.75
2022-08-23T12:06:48.788Z,1.73
2022-08-23T12:09:22.263Z,1.90
2022-08-23T12:11:56.310Z,1.50
2022-08-23T12:14:42.938Z,1.50
2022-08-23T12:17:13.249Z,1.50
2022-08-23T12:19:48.099Z,1.85
2022-08-23T12:22:17.889Z,1.42
2022-08-23T12:24:52.719Z,1.50
2022-08-23T12:27:38.569Z,1.75
2022-08-23T12:30:08.944Z,1.60
2022-08-23T12:32:44.456Z,1.55
2022-08-23T12:35:13.533Z,1.70
2022-08-23T12:37:48.647Z,1.70
2022-08-23T12:40:26.101Z,1.73
2022-08-23T12:43:22.435Z,1.70
2022-08-23T12:46:00.833Z,1.48
2022-08-23T12:48:31.795Z,2.08
2022-08-23T12:51:06.509Z,1.80
2022-08-23T12:53:41.386Z,2.78
2022-08-23T12:56:19.477Z,1.75
2022-08-23T12:58:52.876Z,2.35
2022-08-23T13:01:30.005Z,1.42
2022-08-23T13:04:06.203Z,1.50
2022-08-23T13:06:49.541Z,1.80
2022-08-23T13:09:19.484Z,1.58
2022-08-23T13:11:47.420Z,1.83
2022-08-23T13:14:22.495Z,1.63
2022-08-23T13:16:51.768Z,1.75
2022-08-23T13:19:23.109Z,1.70
2022-08-23T13:22:11.827Z,1.70
2022-08-23T13:24:45.268Z,1.70
2022-08-23T13:27:18.907Z,1.70
2022-08-23T13:29:52.602Z,1.58
2022-08-23T13:32:41.818Z,1.70
2022-08-23T13:35:27.842Z,1.60
2022-08-23T13:37:59.515Z,1.70
2022-08-23T13:40:31.483Z,1.45
2022-08-23T13:43:04.534Z,1.92
2022-08-23T13:45:34.699Z,1.50
2022-08-23T13:48:09.135Z,1.48
2022-08-23T13:50:38.539Z,1.60
2022-08-23T13:53:15.361Z,1.52
2022-08-23T13:55:51.914Z,1.77
2022-08-23T13:58:35.170Z,1.70
2022-08-23T14:01:04.334Z,1.30
2022-08-23T14:03:31.510Z,1.50
2022-08-23T14:05:58.276Z,1.58
2022-08-23T14:08:25.167Z,1.70
2022-08-23T14:10:51.810Z,1.60
2022-08-23T14:13:29.603Z,1.77
2022-08-23T14:21:35.651Z,1.52
2022-08-23T14:24:02.704Z,1.30
2022-08-23T14:26:29.855Z,1.25
2022-08-23T14:28:56.682Z,1.70
2022-08-23T14:31:24.001Z,1.50
2022-08-23T14:33:50.866Z,1.15
2022-08-23T14:36:17.807Z,1.38
2022-08-23T14:38:44.561Z,1.45
2022-08-23T14:41:21.182Z,1.20
2022-08-23T14:43:50.692Z,1.58
2022-08-23T14:46:17.647Z,1.40
2022-08-23T14:48:44.478Z,1.42
2022-08-23T14:51:27.849Z,1.55
2022-08-23T14:53:55.488Z,1.25
2022-08-23T14:56:22.546Z,1.20
2022-08-23T14:58:50.561Z,1.20
2022-08-23T15:01:18.357Z,1.40
2022-08-23T15:03:45.698Z,1.23
2022-08-23T15:06:13.933Z,1.25
2022-08-23T15:08:41.370Z,1.20
2022-08-23T15:13:56.778Z,1.30
2022-08-23T15:16:26.813Z,1.20
2022-08-23T15:18:54.026Z,1.42
2022-08-23T15:21:20.937Z,1.30
2022-08-23T15:23:47.937Z,1.65
2022-08-23T15:26:19.102Z,1.20
2022-08-23T15:28:46.217Z,1.45
2022-08-23T15:31:15.119Z,1.30
2022-08-23T15:33:42.497Z,1.40
2022-08-23T15:36:12.117Z,1.30
2022-08-23T15:38:42.964Z,1.58
2022-08-23T15:41:09.778Z,1.23
2022-08-23T15:43:39.679Z,1.38
2022-08-23T15:46:10.779Z,1.40
2022-08-23T15:48:48.588Z,1.27
2022-08-23T15:51:17.759Z,1.90
2022-08-23T15:53:44.727Z,1.25
2022-08-23T15:56:16.291Z,1.27
2022-08-23T15:58:43.439Z,1.23
2022-08-23T16:01:10.412Z,1.48
2022-08-23T16:03:38.198Z,1.30
2022-08-23T16:06:06.447Z,1.40
2022-08-23T16:08:37.196Z,1.58
2022-08-23T16:11:10.348Z,1.20
2022-08-23T16:13:40.697Z,1.25
2022-08-23T16:16:21.214Z,1.30
2022-08-23T16:18:49.214Z,1.30
2022-08-23T16:21:16.930Z,1.23
2022-08-23T16:23:44.352Z,1.00
2022-08-23T16:26:16.110Z,1.10
2022-08-23T16:28:44.513Z,1.40
2022-08-23T16:31:12.139Z,1.15
2022-08-23T16:33:39.770Z,1.27
2022-08-23T16:36:07.134Z,1.13
2022-08-23T16:38:34.434Z,1.30
2022-08-23T16:41:01.612Z,1.05
2022-08-23T16:43:28.856Z,1.00
2022-08-23T16:45:55.942Z,1.08
2022-08-23T16:48:23.464Z,1.40
2022-08-23T16:50:50.767Z,1.30
2022-08-23T16:53:17.954Z,1.30
2022-08-23T16:55:45.115Z,1.02
2022-08-23T16:58:12.241Z,1.50
2022-08-23T17:00:39.630Z,1.23
2022-08-23T17:03:07.170Z,1.08
2022-08-23T17:05:34.334Z,0.95
2022-08-23T17:08:01.815Z,1.35
2022-08-23T17:10:29.519Z,1.92
2022-08-23T17:12:57.762Z,1.42
2022-08-23T17:15:27.330Z,1.40
2022-08-23T17:17:54.607Z,1.00
2022-08-23T17:20:22.558Z,1.20
2022-08-23T17:22:49.736Z,1.38
2022-08-23T17:25:19.081Z,1.38
2022-08-23T17:27:47.082Z,1.30
2022-08-23T17:30:15.016Z,1.10
2022-08-23T17:32:46.433Z,1.10
2022-08-23T17:35:15.019Z,1.27
2022-08-23T17:37:42.704Z,1.20
2022-08-23T17:40:11.753Z,1.25
2022-08-23T17:42:41.249Z,1.38
2022-08-23T17:45:08.985Z,1.30
2022-08-23T17:47:35.965Z,1.40
2022-08-23T17:50:03.765Z,1.02
2022-08-23T17:52:31.257Z,1.20
2022-08-23T17:54:58.597Z,1.45
2022-08-23T17:57:27.848Z,1.20
2022-08-23T17:59:57.528Z,1.40
2022-08-23T18:02:24.677Z,1.52
2022-08-23T18:04:51.862Z,4.07
2022-08-23T18:07:21.791Z,3.33
2022-08-23T18:09:48.985Z,2.22
2022-08-23T18:12:16.288Z,2.28
2022-08-23T18:14:43.791Z,5.32
2022-08-23T18:17:10.960Z,1.83
2022-08-23T18:19:38.052Z,1.40
2022-08-23T18:22:05.232Z,1.23
2022-08-23T18:24:32.343Z,1.50
2022-08-23T18:27:21.494Z,1.30
2022-08-23T18:29:51.560Z,1.48
2022-08-23T18:32:19.178Z,1.55
2022-08-23T18:34:46.503Z,1.50
2022-08-23T18:37:16.957Z,1.30
2022-08-23T18:39:44.605Z,1.50
2022-08-23T18:42:12.122Z,1.95
2022-08-23T18:44:39.228Z,3.45
2022-08-23T18:47:07.143Z,3.05
2022-08-23T18:49:35.101Z,2.30
2022-08-23T18:52:02.747Z,1.65
2022-08-23T18:54:33.650Z,1.70
2022-08-23T18:57:01.341Z,1.50
2022-08-23T18:59:28.682Z,1.77
2022-08-23T19:01:56.381Z,1.50
2022-08-23T19:04:23.870Z,1.80
2022-08-23T19:06:54.206Z,1.67
2022-08-23T19:09:21.656Z,1.80
2022-08-23T19:11:48.854Z,1.85
2022-08-23T19:14:15.987Z,6.15
2022-08-23T19:16:47.556Z,4.13
2022-08-23T19:19:15.430Z,4.03
2022-08-23T19:21:42.643Z,4.20
2022-08-23T19:24:09.791Z,3.20
2022-08-23T19:26:37.252Z,4.90
2022-08-23T19:29:07.694Z,4.57
2022-08-23T19:31:39.715Z,2.95
2022-08-23T19:34:09.265Z,2.45
2022-08-23T19:36:46.695Z,2.80
2022-08-23T19:39:15.941Z,5.95
2022-08-23T19:41:43.070Z,5.25
2022-08-23T19:44:10.430Z,2.33
2022-08-23T19:46:41.858Z,2.20
2022-08-23T19:49:10.494Z,3.15
2022-08-23T19:51:37.897Z,4.18
2022-08-23T19:54:10.828Z,2.38
2022-08-23T19:56:41.946Z,1.67
2022-08-23T19:59:12.003Z,1.90
2022-08-23T20:01:39.236Z,1.73
2022-08-23T20:04:06.255Z,2.83
2022-08-23T20:06:33.450Z,5.25
2022-08-23T20:09:01.263Z,2.80
2022-08-23T20:11:28.534Z,1.92
2022-08-23T20:13:56.620Z,2.00
2022-08-23T20:16:26.686Z,1.85
2022-08-23T20:18:55.250Z,1.65
2022-08-23T20:21:23.948Z,2.63
2022-08-23T20:24:07.060Z,3.30
2022-08-23T20:26:37.241Z,2.40
2022-08-23T20:29:05.080Z,2.10
2022-08-23T20:31:35.023Z,3.30
2022-08-23T20:34:02.462Z,4.57
2022-08-23T20:36:29.762Z,2.50
2022-08-23T20:38:59.833Z,1.98
2022-08-23T20:41:28.836Z,2.05
2022-08-23T20:43:55.963Z,2.03
2022-08-23T20:46:23.343Z,2.33
2022-08-23T20:48:51.510Z,1.92
2022-08-23T20:51:19.583Z,2.15
2022-08-23T20:53:46.770Z,2.20
2022-08-23T20:56:14.292Z,1.80
2022-08-23T20:58:41.722Z,2.20
2022-08-23T21:01:10.221Z,1.90
2022-08-23T21:03:39.015Z,2.13
2022-08-23T21:06:07.465Z,2.45
2022-08-23T21:08:35.005Z,2.45
2022-08-23T21:11:09.509Z,2.40
2022-08-23T21:13:37.162Z,2.20
2022-08-23T21:16:04.477Z,2.05
2022-08-23T21:18:31.605Z,2.50
2022-08-23T21:20:59.369Z,2.70
2022-08-23T21:23:26.645Z,2.80
2022-08-23T21:25:55.082Z,2.45
2022-08-23T21:28:22.657Z,2.42
2022-08-23T21:30:49.797Z,2.50
2022-08-23T21:33:17.385Z,2.60
2022-08-23T21:35:44.936Z,2.28
2022-08-23T21:38:12.165Z,2.40
2022-08-23T21:40:39.398Z,2.53
2022-08-23T21:43:06.597Z,2.35
2022-08-23T21:45:33.701Z,2.33
2022-08-23T21:48:01.661Z,2.80
2022-08-23T21:50:28.905Z,3.03
2022-08-23T21:52:56.672Z,2.50
2022-08-23T21:55:24.301Z,2.22
2022-08-23T21:58:03.481Z,2.70
2022-08-23T22:00:30.609Z,2.60
2022-08-23T22:02:57.910Z,2.42
2022-08-23T22:05:26.373Z,2.70
2022-08-23T22:07:53.962Z,2.63
2022-08-23T22:10:21.158Z,2.70
2022-08-23T22:12:48.489Z,2.70
2022-08-23T22:15:16.571Z,2.72
2022-08-23T22:17:43.809Z,2.70
2022-08-23T22:20:13.461Z,2.53
2022-08-23T22:22:41.406Z,2.88
2022-08-23T22:25:08.854Z,2.80
2022-08-23T22:27:36.318Z,2.70
2022-08-23T22:30:03.517Z,2.95
2022-08-23T22:32:31.048Z,3.22
2022-08-23T22:34:58.753Z,3.30
2022-08-23T22:37:25.773Z,2.85
2022-08-23T22:39:56.116Z,2.97
2022-08-23T22:42:23.245Z,2.80
2022-08-23T22:44:50.374Z,3.10
2022-08-23T22:47:17.720Z,2.83
2022-08-23T22:49:44.868Z,3.10
2022-08-23T22:52:12.442Z,3.00
2022-08-23T22:54:39.536Z,2.80
2022-08-23T22:57:06.660Z,2.95
2022-08-23T22:59:33.769Z,2.55
2022-08-23T23:02:03.250Z,2.78
2022-08-23T23:04:31.080Z,2.95
2022-08-23T23:06:58.660Z,2.97
2022-08-23T23:09:26.736Z,2.90
2022-08-23T23:11:54.385Z,3.03
2022-08-23T23:14:22.033Z,3.47
2022-08-23T23:16:49.882Z,3.55
2022-08-23T23:19:37.752Z,3.22
2022-08-23T23:22:05.632Z,3.67
2022-08-23T23:24:34.264Z,3.83
2022-08-23T23:27:02.451Z,3.40
2022-08-23T23:29:30.312Z,3.22
2022-08-23T23:31:57.368Z,2.92
2022-08-23T23:34:25.832Z,3.28
2022-08-23T23:36:56.066Z,3.20
2022-08-23T23:39:23.164Z,3.22
2022-08-23T23:41:50.600Z,3.67
2022-08-23T23:44:22.515Z,3.85
2022-08-23T23:46:58.360Z,3.70
2022-08-23T23:49:32.417Z,3.22
2022-08-23T23:51:59.947Z,3.70
2022-08-23T23:54:27.103Z,3.22
2022-08-23T23:56:54.571Z,3.83
2022-08-23T23:59:21.691Z,3.70
